sensor_id;sensor_type;location;lat;lon;timestamp;temperature;humidity
11107;DHT22;5607;48.302;14.294;2022-08-11T00:00:39;20.80;1.00
11107;DHT22;5607;48.302;14.294;2022-08-11T00:03:26;20.90;1.00
11107;DHT22;5607;48.302;14.294;2022-08-11T00:06:12;20.80;1.00
11107;DHT22;5607;48.302;14.294;2022-08-11T00:09:01;20.80;1.00
11107;DHT22;5607;48.302;14.294;2022-08-11T00:11:50;20.70;1.00
11107;DHT22;5607;48.302;14.294;2022-08-11T00:14:37;20.80;1.00
11107;DHT22;5607;48.302;14.294;2022-08-11T00:17:28;20.80;1.00
11107;DHT22;5607;48.302;14.294;2022-08-11T00:20:15;20.80;1.00
11107;DHT22;5607;48.302;14.294;2022-08-11T00:23:06;20.70;1.00
11107;DHT22;5607;48.302;14.294;2022-08-11T00:25:53;20.60;1.00
11107;DHT22;5607;48.302;14.294;2022-08-11T00:28:40;20.70;1.00
11107;DHT22;5607;48.302;14.294;2022-08-11T00:31:30;20.70;1.00
11107;DHT22;5607;48.302;14.294;2022-08-11T00:34:18;20.60;1.00
11107;DHT22;5607;48.302;14.294;2022-08-11T00:37:09;20.60;1.00
11107;DHT22;5607;48.302;14.294;2022-08-11T00:39:56;20.60;1.00
11107;DHT22;5607;48.302;14.294;2022-08-11T00:42:44;20.60;1.00
11107;DHT22;5607;48.302;14.294;2022-08-11T00:51:12;20.50;1.00
11107;DHT22;5607;48.302;14.294;2022-08-11T00:54:06;20.50;1.00
11107;DHT22;5607;48.302;14.294;2022-08-11T01:05:50;20.30;1.00
11107;DHT22;5607;48.302;14.294;2022-08-11T01:24:05;20.20;1.00
11107;DHT22;5607;48.302;14.294;2022-08-11T01:54:22;19.90;1.00
11107;DHT22;5607;48.302;14.294;2022-08-11T02:00:07;19.90;1.00
11107;DHT22;5607;48.302;14.294;2022-08-11T02:14:18;19.80;1.00
11107;DHT22;5607;48.302;14.294;2022-08-11T02:17:56;19.90;1.00
11107;DHT22;5607;48.302;14.294;2022-08-11T02:23:28;19.80;1.00
11107;DHT22;5607;48.302;14.294;2022-08-11T02:41:07;19.80;1.00
11107;DHT22;5607;48.302;14.294;2022-08-11T02:47:04;19.80;1.00
11107;DHT22;5607;48.302;14.294;2022-08-11T02:49:57;19.90;1.00
11107;DHT22;5607;48.302;14.294;2022-08-11T02:52:52;19.90;1.00
11107;DHT22;5607;48.302;14.294;2022-08-11T02:55:47;19.90;1.00
11107;DHT22;5607;48.302;14.294;2022-08-11T02:58:53;19.90;1.00
11107;DHT22;5607;48.302;14.294;2022-08-11T03:02:43;19.90;1.00
11107;DHT22;5607;48.302;14.294;2022-08-11T03:08:04;19.80;1.00
11107;DHT22;5607;48.302;14.294;2022-08-11T03:11:11;19.90;1.00
11107;DHT22;5607;48.302;14.294;2022-08-11T03:23:38;19.80;1.00
11107;DHT22;5607;48.302;14.294;2022-08-11T03:26:35;19.80;1.00
11107;DHT22;5607;48.302;14.294;2022-08-11T03:29:29;19.80;1.00
11107;DHT22;5607;48.302;14.294;2022-08-11T03:32:20;19.80;1.00
11107;DHT22;5607;48.302;14.294;2022-08-11T03:35:09;19.80;1.00
11107;DHT22;5607;48.302;14.294;2022-08-11T03:37:59;19.70;1.00
11107;DHT22;5607;48.302;14.294;2022-08-11T03:44:08;19.70;1.00
11107;DHT22;5607;48.302;14.294;2022-08-11T03:46:59;19.70;1.00
11107;DHT22;5607;48.302;14.294;2022-08-11T03:53:13;19.70;1.00
11107;DHT22;5607;48.302;14.294;2022-08-11T04:11:11;19.60;1.00
11107;DHT22;5607;48.302;14.294;2022-08-11T04:23:18;19.80;1.00
11107;DHT22;5607;48.302;14.294;2022-08-11T04:51:18;20.10;1.00
11107;DHT22;5607;48.302;14.294;2022-08-11T04:54:44;20.00;1.00
11107;DHT22;5607;48.302;14.294;2022-08-11T05:11:17;20.30;1.00
11107;DHT22;5607;48.302;14.294;2022-08-11T05:17:29;20.30;1.00
11107;DHT22;5607;48.302;14.294;2022-08-11T05:20:40;20.40;1.00
11107;DHT22;5607;48.302;14.294;2022-08-11T05:23:48;20.40;1.00
11107;DHT22;5607;48.302;14.294;2022-08-11T05:26:57;20.40;1.00
11107;DHT22;5607;48.302;14.294;2022-08-11T05:30:03;20.40;1.00
11107;DHT22;5607;48.302;14.294;2022-08-11T05:33:09;20.40;1.00
11107;DHT22;5607;48.302;14.294;2022-08-11T05:39:27;20.40;1.00
11107;DHT22;5607;48.302;14.294;2022-08-11T05:42:41;20.60;1.00
11107;DHT22;5607;48.302;14.294;2022-08-11T05:45:57;20.60;1.00
11107;DHT22;5607;48.302;14.294;2022-08-11T05:49:06;20.70;1.00
11107;DHT22;5607;48.302;14.294;2022-08-11T05:52:15;20.80;1.00
11107;DHT22;5607;48.302;14.294;2022-08-11T05:55:22;20.80;1.00
11107;DHT22;5607;48.302;14.294;2022-08-11T05:58:31;20.90;1.00
11107;DHT22;5607;48.302;14.294;2022-08-11T06:01:22;20.90;1.00
11107;DHT22;5607;48.302;14.294;2022-08-11T06:04:12;21.10;1.00
11107;DHT22;5607;48.302;14.294;2022-08-11T06:07:02;21.10;1.00
11107;DHT22;5607;48.302;14.294;2022-08-11T06:09:51;21.20;1.00
11107;DHT22;5607;48.302;14.294;2022-08-11T06:12:38;21.20;1.00
11107;DHT22;5607;48.302;14.294;2022-08-11T06:15:25;21.30;1.00
11107;DHT22;5607;48.302;14.294;2022-08-11T06:18:12;21.40;1.00
11107;DHT22;5607;48.302;14.294;2022-08-11T06:20:59;21.50;1.00
11107;DHT22;5607;48.302;14.294;2022-08-11T07:14:31;23.50;1.00
11107;DHT22;5607;48.302;14.294;2022-08-11T07:17:40;23.60;1.00
11107;DHT22;5607;48.302;14.294;2022-08-11T07:20:27;23.80;1.00
11107;DHT22;5607;48.302;14.294;2022-08-11T07:23:34;24.00;1.00
11107;DHT22;5607;48.302;14.294;2022-08-11T07:26:42;24.10;1.00
11107;DHT22;5607;48.302;14.294;2022-08-11T07:29:49;24.20;1.00
11107;DHT22;5607;48.302;14.294;2022-08-11T07:32:48;24.20;1.00
11107;DHT22;5607;48.302;14.294;2022-08-11T07:35:36;24.40;1.00
11107;DHT22;5607;48.302;14.294;2022-08-11T07:38:24;24.60;1.00
11107;DHT22;5607;48.302;14.294;2022-08-11T07:44:51;24.90;1.00
11107;DHT22;5607;48.302;14.294;2022-08-11T07:47:57;24.80;1.00
11107;DHT22;5607;48.302;14.294;2022-08-11T07:51:03;24.90;1.00
11107;DHT22;5607;48.302;14.294;2022-08-11T07:54:08;24.90;1.00
11107;DHT22;5607;48.302;14.294;2022-08-11T07:56:55;25.10;1.00
11107;DHT22;5607;48.302;14.294;2022-08-11T07:59:42;25.20;1.00
11107;DHT22;5607;48.302;14.294;2022-08-11T08:02:47;25.30;1.00
11107;DHT22;5607;48.302;14.294;2022-08-11T08:05:52;25.50;1.00
11107;DHT22;5607;48.302;14.294;2022-08-11T08:08:57;25.70;1.00
11107;DHT22;5607;48.302;14.294;2022-08-11T08:12:02;25.80;1.00
11107;DHT22;5607;48.302;14.294;2022-08-11T08:15:08;26.00;1.00
11107;DHT22;5607;48.302;14.294;2022-08-11T08:18:14;26.10;1.00
11107;DHT22;5607;48.302;14.294;2022-08-11T08:21:02;26.20;1.00
11107;DHT22;5607;48.302;14.294;2022-08-11T08:23:56;26.30;1.00
11107;DHT22;5607;48.302;14.294;2022-08-11T08:26:43;26.40;1.00
11107;DHT22;5607;48.302;14.294;2022-08-11T08:29:45;26.50;1.00
11107;DHT22;5607;48.302;14.294;2022-08-11T08:32:50;26.50;1.00
11107;DHT22;5607;48.302;14.294;2022-08-11T08:35:37;26.50;1.00
11107;DHT22;5607;48.302;14.294;2022-08-11T08:38:26;26.50;1.00
11107;DHT22;5607;48.302;14.294;2022-08-11T08:41:12;26.40;1.00
11107;DHT22;5607;48.302;14.294;2022-08-11T08:44:00;26.50;1.00
11107;DHT22;5607;48.302;14.294;2022-08-11T08:46:58;26.60;1.00
11107;DHT22;5607;48.302;14.294;2022-08-11T08:49:51;26.60;1.00
11107;DHT22;5607;48.302;14.294;2022-08-11T08:52:42;26.70;1.00
11107;DHT22;5607;48.302;14.294;2022-08-11T08:55:30;26.70;1.00
11107;DHT22;5607;48.302;14.294;2022-08-11T08:58:18;26.80;1.00
11107;DHT22;5607;48.302;14.294;2022-08-11T09:01:05;26.70;1.00
11107;DHT22;5607;48.302;14.294;2022-08-11T09:03:52;26.80;1.00
11107;DHT22;5607;48.302;14.294;2022-08-11T09:06:39;26.70;1.00
11107;DHT22;5607;48.302;14.294;2022-08-11T09:09:27;26.80;1.00
11107;DHT22;5607;48.302;14.294;2022-08-11T09:12:14;26.50;1.00
11107;DHT22;5607;48.302;14.294;2022-08-11T09:15:03;26.60;1.00
11107;DHT22;5607;48.302;14.294;2022-08-11T09:17:52;26.60;1.00
11107;DHT22;5607;48.302;14.294;2022-08-11T09:20:39;26.50;1.00
11107;DHT22;5607;48.302;14.294;2022-08-11T09:23:26;26.50;1.00
11107;DHT22;5607;48.302;14.294;2022-08-11T09:26:32;26.60;1.00
11107;DHT22;5607;48.302;14.294;2022-08-11T09:29:38;26.70;1.00
11107;DHT22;5607;48.302;14.294;2022-08-11T09:32:24;26.60;1.00
11107;DHT22;5607;48.302;14.294;2022-08-11T09:35:19;26.60;1.00
11107;DHT22;5607;48.302;14.294;2022-08-11T09:38:06;26.50;1.00
11107;DHT22;5607;48.302;14.294;2022-08-11T09:41:13;26.60;1.00
11107;DHT22;5607;48.302;14.294;2022-08-11T09:44:00;26.60;1.00
11107;DHT22;5607;48.302;14.294;2022-08-11T09:47:07;26.50;1.00
11107;DHT22;5607;48.302;14.294;2022-08-11T09:49:58;26.50;1.00
11107;DHT22;5607;48.302;14.294;2022-08-11T09:52:45;26.50;1.00
11107;DHT22;5607;48.302;14.294;2022-08-11T09:55:33;26.40;1.00
11107;DHT22;5607;48.302;14.294;2022-08-11T09:58:20;26.40;1.00
11107;DHT22;5607;48.302;14.294;2022-08-11T10:01:09;26.50;1.00
11107;DHT22;5607;48.302;14.294;2022-08-11T10:07:49;26.70;1.00
11107;DHT22;5607;48.302;14.294;2022-08-11T10:10:38;26.60;1.00
11107;DHT22;5607;48.302;14.294;2022-08-11T10:13:33;26.50;1.00
11107;DHT22;5607;48.302;14.294;2022-08-11T10:16:43;26.60;1.00
11107;DHT22;5607;48.302;14.294;2022-08-11T10:19:30;26.70;1.00
11107;DHT22;5607;48.302;14.294;2022-08-11T10:22:17;26.80;1.00
11107;DHT22;5607;48.302;14.294;2022-08-11T10:25:22;26.80;1.00
11107;DHT22;5607;48.302;14.294;2022-08-11T10:28:27;26.80;1.00
11107;DHT22;5607;48.302;14.294;2022-08-11T10:31:15;26.70;1.00
11107;DHT22;5607;48.302;14.294;2022-08-11T10:34:20;26.60;1.00
11107;DHT22;5607;48.302;14.294;2022-08-11T10:37:10;26.60;1.00
11107;DHT22;5607;48.302;14.294;2022-08-11T10:39:56;26.70;1.00
11107;DHT22;5607;48.302;14.294;2022-08-11T10:42:43;26.60;1.00
11107;DHT22;5607;48.302;14.294;2022-08-11T10:45:47;26.50;1.00
11107;DHT22;5607;48.302;14.294;2022-08-11T10:52:03;26.50;1.00
11107;DHT22;5607;48.302;14.294;2022-08-11T10:55:08;26.60;1.00
11107;DHT22;5607;48.302;14.294;2022-08-11T10:58:13;26.70;1.00
11107;DHT22;5607;48.302;14.294;2022-08-11T11:01:22;26.70;1.00
11107;DHT22;5607;48.302;14.294;2022-08-11T11:04:14;26.90;1.00
11107;DHT22;5607;48.302;14.294;2022-08-11T11:07:08;27.00;1.00
11107;DHT22;5607;48.302;14.294;2022-08-11T11:10:02;27.00;1.00
11107;DHT22;5607;48.302;14.294;2022-08-11T11:12:51;27.20;1.00
11107;DHT22;5607;48.302;14.294;2022-08-11T11:15:57;27.30;1.00
11107;DHT22;5607;48.302;14.294;2022-08-11T11:19:02;27.50;1.00
11107;DHT22;5607;48.302;14.294;2022-08-11T11:21:52;27.50;1.00
11107;DHT22;5607;48.302;14.294;2022-08-11T11:24:52;27.50;1.00
11107;DHT22;5607;48.302;14.294;2022-08-11T11:30:35;27.60;1.00
11107;DHT22;5607;48.302;14.294;2022-08-11T11:33:46;27.60;1.00
11107;DHT22;5607;48.302;14.294;2022-08-11T11:39:31;27.50;1.00
11107;DHT22;5607;48.302;14.294;2022-08-11T11:42:17;27.80;1.00
11107;DHT22;5607;48.302;14.294;2022-08-11T11:45:05;27.90;1.00
11107;DHT22;5607;48.302;14.294;2022-08-11T11:47:55;27.90;1.00
11107;DHT22;5607;48.302;14.294;2022-08-11T11:50:43;28.00;1.00
11107;DHT22;5607;48.302;14.294;2022-08-11T11:53:29;27.90;1.00
11107;DHT22;5607;48.302;14.294;2022-08-11T11:56:18;28.10;1.00
11107;DHT22;5607;48.302;14.294;2022-08-11T11:59:09;28.10;1.00
11107;DHT22;5607;48.302;14.294;2022-08-11T12:05:26;28.50;1.00
11107;DHT22;5607;48.302;14.294;2022-08-11T12:08:15;28.60;1.00
11107;DHT22;5607;48.302;14.294;2022-08-11T12:11:02;28.90;1.00
11107;DHT22;5607;48.302;14.294;2022-08-11T12:14:08;28.80;1.00
11107;DHT22;5607;48.302;14.294;2022-08-11T12:16:55;28.80;1.00
11107;DHT22;5607;48.302;14.294;2022-08-11T12:19:42;28.80;1.00
11107;DHT22;5607;48.302;14.294;2022-08-11T12:22:28;28.90;1.00
11107;DHT22;5607;48.302;14.294;2022-08-11T12:25:36;29.00;1.00
11107;DHT22;5607;48.302;14.294;2022-08-11T12:28:41;29.00;1.00
11107;DHT22;5607;48.302;14.294;2022-08-11T12:31:28;29.20;1.00
11107;DHT22;5607;48.302;14.294;2022-08-11T12:34:15;29.40;1.00
11107;DHT22;5607;48.302;14.294;2022-08-11T12:37:06;29.50;1.00
11107;DHT22;5607;48.302;14.294;2022-08-11T12:39:59;29.60;1.00
11107;DHT22;5607;48.302;14.294;2022-08-11T12:43:06;29.80;1.00
11107;DHT22;5607;48.302;14.294;2022-08-11T12:46:13;29.70;1.00
11107;DHT22;5607;48.302;14.294;2022-08-11T12:49:22;29.60;1.00
11107;DHT22;5607;48.302;14.294;2022-08-11T12:52:26;29.60;1.00
11107;DHT22;5607;48.302;14.294;2022-08-11T12:55:15;29.60;1.00
11107;DHT22;5607;48.302;14.294;2022-08-11T12:58:21;29.60;1.00
11107;DHT22;5607;48.302;14.294;2022-08-11T13:01:07;29.90;1.00
11107;DHT22;5607;48.302;14.294;2022-08-11T13:04:12;29.80;1.00
11107;DHT22;5607;48.302;14.294;2022-08-11T13:07:18;29.90;1.00
11107;DHT22;5607;48.302;14.294;2022-08-11T13:10:05;30.00;1.00
11107;DHT22;5607;48.302;14.294;2022-08-11T13:12:53;30.30;1.00
11107;DHT22;5607;48.302;14.294;2022-08-11T13:15:39;30.60;1.00
11107;DHT22;5607;48.302;14.294;2022-08-11T13:18:26;30.60;1.00
11107;DHT22;5607;48.302;14.294;2022-08-11T13:21:13;30.70;1.00
11107;DHT22;5607;48.302;14.294;2022-08-11T13:24:01;30.80;1.00
11107;DHT22;5607;48.302;14.294;2022-08-11T13:26:47;30.60;1.00
11107;DHT22;5607;48.302;14.294;2022-08-11T13:29:35;30.60;1.00
11107;DHT22;5607;48.302;14.294;2022-08-11T13:32:21;30.60;1.00
11107;DHT22;5607;48.302;14.294;2022-08-11T13:35:11;30.60;1.00
11107;DHT22;5607;48.302;14.294;2022-08-11T13:38:00;30.60;1.00
11107;DHT22;5607;48.302;14.294;2022-08-11T13:40:48;30.80;1.00
11107;DHT22;5607;48.302;14.294;2022-08-11T13:43:34;31.40;1.00
11107;DHT22;5607;48.302;14.294;2022-08-11T13:46:21;31.90;1.00
11107;DHT22;5607;48.302;14.294;2022-08-11T13:49:09;32.30;1.00
11107;DHT22;5607;48.302;14.294;2022-08-11T13:51:56;32.70;1.00
11107;DHT22;5607;48.302;14.294;2022-08-11T13:54:44;32.90;1.00
11107;DHT22;5607;48.302;14.294;2022-08-11T13:57:31;33.00;1.00
11107;DHT22;5607;48.302;14.294;2022-08-11T14:00:20;33.00;99.90
11107;DHT22;5607;48.302;14.294;2022-08-11T14:03:07;34.10;99.90
11107;DHT22;5607;48.302;14.294;2022-08-11T14:05:57;34.50;99.90
11107;DHT22;5607;48.302;14.294;2022-08-11T14:08:45;35.50;99.90
11107;DHT22;5607;48.302;14.294;2022-08-11T14:11:31;35.80;99.90
11107;DHT22;5607;48.302;14.294;2022-08-11T14:14:36;36.60;99.90
11107;DHT22;5607;48.302;14.294;2022-08-11T14:17:23;37.60;99.90
11107;DHT22;5607;48.302;14.294;2022-08-11T14:20:09;38.90;99.90
11107;DHT22;5607;48.302;14.294;2022-08-11T14:22:57;41.10;99.90
11107;DHT22;5607;48.302;14.294;2022-08-11T14:25:43;42.90;99.90
11107;DHT22;5607;48.302;14.294;2022-08-11T14:28:50;45.00;99.90
11107;DHT22;5607;48.302;14.294;2022-08-11T14:31:47;46.00;99.90
11107;DHT22;5607;48.302;14.294;2022-08-11T14:34:35;46.00;99.90
11107;DHT22;5607;48.302;14.294;2022-08-11T14:37:22;47.70;99.90
11107;DHT22;5607;48.302;14.294;2022-08-11T14:40:10;48.20;99.90
11107;DHT22;5607;48.302;14.294;2022-08-11T14:43:16;48.70;99.90
11107;DHT22;5607;48.302;14.294;2022-08-11T14:46:21;47.20;99.90
11107;DHT22;5607;48.302;14.294;2022-08-11T14:49:27;46.70;99.90
11107;DHT22;5607;48.302;14.294;2022-08-11T14:52:14;47.20;99.90
11107;DHT22;5607;48.302;14.294;2022-08-11T14:55:01;49.30;99.90
11107;DHT22;5607;48.302;14.294;2022-08-11T14:58:07;49.90;99.90
11107;DHT22;5607;48.302;14.294;2022-08-11T15:00:57;46.90;1.40
11107;DHT22;5607;48.302;14.294;2022-08-11T15:03:44;44.30;1.00
11107;DHT22;5607;48.302;14.294;2022-08-11T15:06:31;43.80;1.00
11107;DHT22;5607;48.302;14.294;2022-08-11T15:09:18;43.90;1.00
11107;DHT22;5607;48.302;14.294;2022-08-11T15:12:04;42.70;1.00
11107;DHT22;5607;48.302;14.294;2022-08-11T15:14:53;43.00;1.40
11107;DHT22;5607;48.302;14.294;2022-08-11T15:17:59;43.10;1.00
11107;DHT22;5607;48.302;14.294;2022-08-11T15:20:46;44.20;1.00
11107;DHT22;5607;48.302;14.294;2022-08-11T15:23:51;46.10;1.00
11107;DHT22;5607;48.302;14.294;2022-08-11T15:26:56;47.40;99.90
11107;DHT22;5607;48.302;14.294;2022-08-11T15:30:02;47.40;1.00
11107;DHT22;5607;48.302;14.294;2022-08-11T15:33:08;47.00;1.00
11107;DHT22;5607;48.302;14.294;2022-08-11T15:36:14;44.30;1.00
11107;DHT22;5607;48.302;14.294;2022-08-11T15:39:20;40.60;1.00
11107;DHT22;5607;48.302;14.294;2022-08-11T15:42:11;37.70;1.00
11107;DHT22;5607;48.302;14.294;2022-08-11T15:45:16;35.00;1.00
11107;DHT22;5607;48.302;14.294;2022-08-11T15:48:33;33.00;1.00
11107;DHT22;5607;48.302;14.294;2022-08-11T15:51:33;31.60;1.00
11107;DHT22;5607;48.302;14.294;2022-08-11T15:54:22;30.60;1.00
11107;DHT22;5607;48.302;14.294;2022-08-11T15:57:09;29.90;1.00
11107;DHT22;5607;48.302;14.294;2022-08-11T16:00:15;29.80;1.00
11107;DHT22;5607;48.302;14.294;2022-08-11T16:03:20;29.90;1.00
11107;DHT22;5607;48.302;14.294;2022-08-11T16:06:26;29.90;1.00
11107;DHT22;5607;48.302;14.294;2022-08-11T16:09:14;29.80;1.00
11107;DHT22;5607;48.302;14.294;2022-08-11T16:12:03;29.60;1.00
11107;DHT22;5607;48.302;14.294;2022-08-11T16:14:52;29.30;1.00
11107;DHT22;5607;48.302;14.294;2022-08-11T16:17:58;29.10;1.00
11107;DHT22;5607;48.302;14.294;2022-08-11T16:20:46;29.00;1.00
11107;DHT22;5607;48.302;14.294;2022-08-11T16:23:36;28.80;1.00
11107;DHT22;5607;48.302;14.294;2022-08-11T16:26:22;28.90;1.00
11107;DHT22;5607;48.302;14.294;2022-08-11T16:29:09;29.00;1.00
11107;DHT22;5607;48.302;14.294;2022-08-11T16:31:56;28.80;1.00
11107;DHT22;5607;48.302;14.294;2022-08-11T16:35:05;28.80;1.00
11107;DHT22;5607;48.302;14.294;2022-08-11T16:38:19;28.90;1.00
11107;DHT22;5607;48.302;14.294;2022-08-11T16:41:21;29.20;1.00
11107;DHT22;5607;48.302;14.294;2022-08-11T16:44:26;29.40;1.00
11107;DHT22;5607;48.302;14.294;2022-08-11T16:47:31;29.40;1.00
11107;DHT22;5607;48.302;14.294;2022-08-11T16:50:18;29.50;1.00
11107;DHT22;5607;48.302;14.294;2022-08-11T16:53:05;29.40;1.00
11107;DHT22;5607;48.302;14.294;2022-08-11T16:55:52;29.20;1.00
11107;DHT22;5607;48.302;14.294;2022-08-11T16:58:39;29.20;1.00
11107;DHT22;5607;48.302;14.294;2022-08-11T17:07:37;28.90;1.00
11107;DHT22;5607;48.302;14.294;2022-08-11T17:10:53;29.00;1.00
11107;DHT22;5607;48.302;14.294;2022-08-11T17:14:02;28.90;1.00
11107;DHT22;5607;48.302;14.294;2022-08-11T17:16:51;28.70;1.00
11107;DHT22;5607;48.302;14.294;2022-08-11T17:19:40;28.60;1.00
11107;DHT22;5607;48.302;14.294;2022-08-11T17:22:27;28.40;1.00
11107;DHT22;5607;48.302;14.294;2022-08-11T17:25:33;28.20;1.00
11107;DHT22;5607;48.302;14.294;2022-08-11T17:28:19;27.90;1.00
11107;DHT22;5607;48.302;14.294;2022-08-11T17:31:07;27.70;1.00
11107;DHT22;5607;48.302;14.294;2022-08-11T17:34:12;27.60;1.00
11107;DHT22;5607;48.302;14.294;2022-08-11T17:37:17;27.40;1.00
11107;DHT22;5607;48.302;14.294;2022-08-11T17:40:05;27.30;1.00
11107;DHT22;5607;48.302;14.294;2022-08-11T17:42:53;27.20;1.00
11107;DHT22;5607;48.302;14.294;2022-08-11T17:45:59;27.00;1.00
11107;DHT22;5607;48.302;14.294;2022-08-11T17:49:05;26.80;1.00
11107;DHT22;5607;48.302;14.294;2022-08-11T17:51:52;26.60;1.00
11107;DHT22;5607;48.302;14.294;2022-08-11T17:54:57;26.50;1.00
11107;DHT22;5607;48.302;14.294;2022-08-11T17:58:02;26.40;1.00
11107;DHT22;5607;48.302;14.294;2022-08-11T18:01:08;26.30;1.00
11107;DHT22;5607;48.302;14.294;2022-08-11T18:03:56;26.20;1.00
11107;DHT22;5607;48.302;14.294;2022-08-11T18:06:43;26.20;1.00
11107;DHT22;5607;48.302;14.294;2022-08-11T18:09:31;26.20;1.00
11107;DHT22;5607;48.302;14.294;2022-08-11T18:12:36;26.00;1.00
11107;DHT22;5607;48.302;14.294;2022-08-11T18:15:41;25.90;1.00
11107;DHT22;5607;48.302;14.294;2022-08-11T18:18:47;25.80;1.00
11107;DHT22;5607;48.302;14.294;2022-08-11T18:21:53;25.80;1.00
11107;DHT22;5607;48.302;14.294;2022-08-11T18:25:05;25.70;1.00
11107;DHT22;5607;48.302;14.294;2022-08-11T18:28:12;25.60;1.00
11107;DHT22;5607;48.302;14.294;2022-08-11T18:31:17;25.50;1.00
11107;DHT22;5607;48.302;14.294;2022-08-11T18:34:27;25.30;1.00
11107;DHT22;5607;48.302;14.294;2022-08-11T18:37:33;25.20;1.00
11107;DHT22;5607;48.302;14.294;2022-08-11T18:40:39;25.00;1.00
11107;DHT22;5607;48.302;14.294;2022-08-11T18:43:45;24.90;1.00
11107;DHT22;5607;48.302;14.294;2022-08-11T18:46:51;24.90;1.00
11107;DHT22;5607;48.302;14.294;2022-08-11T18:49:57;24.80;1.00
11107;DHT22;5607;48.302;14.294;2022-08-11T18:53:03;24.80;1.00
11107;DHT22;5607;48.302;14.294;2022-08-11T18:56:09;24.80;1.00
11107;DHT22;5607;48.302;14.294;2022-08-11T18:59:16;24.60;1.00
11107;DHT22;5607;48.302;14.294;2022-08-11T19:02:24;24.60;1.00
11107;DHT22;5607;48.302;14.294;2022-08-11T19:05:30;24.60;1.00
11107;DHT22;5607;48.302;14.294;2022-08-11T19:08:40;24.50;1.00
11107;DHT22;5607;48.302;14.294;2022-08-11T19:11:47;24.50;1.00
11107;DHT22;5607;48.302;14.294;2022-08-11T19:14:52;24.40;1.00
11107;DHT22;5607;48.302;14.294;2022-08-11T19:17:58;24.40;1.00
11107;DHT22;5607;48.302;14.294;2022-08-11T19:21:03;24.30;1.00
11107;DHT22;5607;48.302;14.294;2022-08-11T19:24:09;24.30;1.00
11107;DHT22;5607;48.302;14.294;2022-08-11T19:27:14;24.20;1.00
11107;DHT22;5607;48.302;14.294;2022-08-11T19:30:20;24.10;1.00
11107;DHT22;5607;48.302;14.294;2022-08-11T19:33:25;24.10;1.00
11107;DHT22;5607;48.302;14.294;2022-08-11T19:36:30;24.00;1.00
11107;DHT22;5607;48.302;14.294;2022-08-11T19:39:35;24.00;1.00
11107;DHT22;5607;48.302;14.294;2022-08-11T19:42:40;23.90;1.00
11107;DHT22;5607;48.302;14.294;2022-08-11T19:45:46;23.90;1.00
11107;DHT22;5607;48.302;14.294;2022-08-11T19:48:52;23.70;1.00
11107;DHT22;5607;48.302;14.294;2022-08-11T19:51:58;23.60;1.00
11107;DHT22;5607;48.302;14.294;2022-08-11T19:55:03;23.60;1.00
11107;DHT22;5607;48.302;14.294;2022-08-11T19:58:09;23.50;1.00
11107;DHT22;5607;48.302;14.294;2022-08-11T20:01:14;23.40;1.00
11107;DHT22;5607;48.302;14.294;2022-08-11T20:04:19;23.40;1.00
11107;DHT22;5607;48.302;14.294;2022-08-11T20:07:23;23.30;1.00
11107;DHT22;5607;48.302;14.294;2022-08-11T20:10:29;23.30;1.00
11107;DHT22;5607;48.302;14.294;2022-08-11T20:13:34;23.20;1.00
11107;DHT22;5607;48.302;14.294;2022-08-11T20:16:40;23.20;1.00
11107;DHT22;5607;48.302;14.294;2022-08-11T20:19:46;23.20;1.00
11107;DHT22;5607;48.302;14.294;2022-08-11T20:22:52;23.20;1.00
11107;DHT22;5607;48.302;14.294;2022-08-11T20:25:58;23.20;1.00
11107;DHT22;5607;48.302;14.294;2022-08-11T20:29:03;23.10;1.00
11107;DHT22;5607;48.302;14.294;2022-08-11T20:32:09;23.00;1.00
11107;DHT22;5607;48.302;14.294;2022-08-11T20:35:14;22.90;1.00
11107;DHT22;5607;48.302;14.294;2022-08-11T20:38:20;22.80;1.00
11107;DHT22;5607;48.302;14.294;2022-08-11T20:41:25;22.90;1.00
11107;DHT22;5607;48.302;14.294;2022-08-11T20:44:31;22.80;1.00
11107;DHT22;5607;48.302;14.294;2022-08-11T20:47:36;22.70;1.00
11107;DHT22;5607;48.302;14.294;2022-08-11T20:50:42;22.60;1.00
11107;DHT22;5607;48.302;14.294;2022-08-11T20:53:47;22.60;1.00
11107;DHT22;5607;48.302;14.294;2022-08-11T20:56:52;22.60;1.00
11107;DHT22;5607;48.302;14.294;2022-08-11T20:59:58;22.50;1.00
11107;DHT22;5607;48.302;14.294;2022-08-11T21:03:02;22.50;1.00
11107;DHT22;5607;48.302;14.294;2022-08-11T21:06:07;22.50;1.00
11107;DHT22;5607;48.302;14.294;2022-08-11T21:09:14;22.40;1.00
11107;DHT22;5607;48.302;14.294;2022-08-11T21:12:19;22.40;1.00
11107;DHT22;5607;48.302;14.294;2022-08-11T21:15:26;22.30;1.00
11107;DHT22;5607;48.302;14.294;2022-08-11T21:18:33;22.30;1.00
11107;DHT22;5607;48.302;14.294;2022-08-11T21:21:39;22.20;1.00
11107;DHT22;5607;48.302;14.294;2022-08-11T21:24:44;22.10;1.00
11107;DHT22;5607;48.302;14.294;2022-08-11T21:27:50;22.00;1.00
11107;DHT22;5607;48.302;14.294;2022-08-11T21:30:55;21.90;1.00
11107;DHT22;5607;48.302;14.294;2022-08-11T21:34:00;21.80;1.00
11107;DHT22;5607;48.302;14.294;2022-08-11T21:37:06;21.70;1.00
11107;DHT22;5607;48.302;14.294;2022-08-11T21:40:11;21.70;1.00
11107;DHT22;5607;48.302;14.294;2022-08-11T21:43:18;21.60;1.00
11107;DHT22;5607;48.302;14.294;2022-08-11T21:46:24;21.60;1.00
11107;DHT22;5607;48.302;14.294;2022-08-11T21:49:30;21.60;1.00
11107;DHT22;5607;48.302;14.294;2022-08-11T21:52:36;21.60;1.00
11107;DHT22;5607;48.302;14.294;2022-08-11T21:55:42;21.50;1.00
11107;DHT22;5607;48.302;14.294;2022-08-11T21:58:47;21.30;1.00
11107;DHT22;5607;48.302;14.294;2022-08-11T22:01:53;21.20;1.00
11107;DHT22;5607;48.302;14.294;2022-08-11T22:04:58;21.10;1.00
11107;DHT22;5607;48.302;14.294;2022-08-11T22:08:03;21.00;1.00
11107;DHT22;5607;48.302;14.294;2022-08-11T22:11:08;21.00;1.00
11107;DHT22;5607;48.302;14.294;2022-08-11T22:14:12;20.90;1.00
11107;DHT22;5607;48.302;14.294;2022-08-11T22:17:17;20.90;1.00
11107;DHT22;5607;48.302;14.294;2022-08-11T22:20:22;20.80;1.00
11107;DHT22;5607;48.302;14.294;2022-08-11T22:23:27;20.70;1.00
11107;DHT22;5607;48.302;14.294;2022-08-11T22:26:33;20.70;1.00
11107;DHT22;5607;48.302;14.294;2022-08-11T22:29:38;20.70;1.00
11107;DHT22;5607;48.302;14.294;2022-08-11T22:32:43;20.80;1.00
11107;DHT22;5607;48.302;14.294;2022-08-11T22:35:48;20.80;1.00
11107;DHT22;5607;48.302;14.294;2022-08-11T22:38:53;20.90;1.00
11107;DHT22;5607;48.302;14.294;2022-08-11T22:41:59;20.90;1.00
11107;DHT22;5607;48.302;14.294;2022-08-11T22:45:04;20.90;1.00
11107;DHT22;5607;48.302;14.294;2022-08-11T22:48:09;20.80;1.00
11107;DHT22;5607;48.302;14.294;2022-08-11T22:51:16;20.90;1.00
11107;DHT22;5607;48.302;14.294;2022-08-11T22:54:23;20.90;1.00
11107;DHT22;5607;48.302;14.294;2022-08-11T22:57:28;20.90;1.00
11107;DHT22;5607;48.302;14.294;2022-08-11T23:00:33;20.80;1.00
11107;DHT22;5607;48.302;14.294;2022-08-11T23:03:38;20.80;1.00
11107;DHT22;5607;48.302;14.294;2022-08-11T23:06:43;20.80;1.00
11107;DHT22;5607;48.302;14.294;2022-08-11T23:09:49;20.90;1.00
11107;DHT22;5607;48.302;14.294;2022-08-11T23:12:54;20.90;1.00
11107;DHT22;5607;48.302;14.294;2022-08-11T23:16:00;20.90;1.00